Time;durP1;ratioP1;P1;durP2;ratioP2;P2;SDS_P1;SDS_P2;PMS_P1;PMS_P2;Temp;Humidity;BMP_temperature;BMP_pressure;BME280_temperature;BME280_humidity;BME280_pressure;Samples;Min_cycle;Max_cycle;Signal;HPM_P1;HPM_P2
2022/07/19 00:00:19;;;;;;;5.87;3.27;;;;;;;25.25;37.21;97810.94;5080126;28;20232;-69
2022/07/19 00:02:44;;;;;;;3.90;3.27;;;;;;;25.28;37.05;97806.97;5072618;28;20212;-70
2022/07/19 00:05:11;;;;;;;4.20;3.40;;;;;;;25.33;37.25;97815.13;5071400;28;20413;-70
2022/07/19 00:07:37;;;;;;;4.60;3.40;;;;;;;25.33;37.15;97811.66;5071643;28;20232;-71
2022/07/19 00:10:04;;;;;;;6.93;3.00;;;;;;;25.24;37.19;97817.34;5075339;28;20425;-71
2022/07/19 00:12:30;;;;;;;10.13;5.53;;;;;;;25.22;37.31;97811.41;5063413;28;20429;-69
2022/07/19 00:14:55;;;;;;;7.00;4.53;;;;;;;25.19;37.19;97817.25;5078806;28;20500;-69
2022/07/19 00:17:21;;;;;;;6.13;4.60;;;;;;;25.16;37.65;97820.38;5072515;28;20181;-69
2022/07/19 00:19:46;;;;;;;7.47;6.27;;;;;;;25.26;37.71;97819.81;5071699;28;20174;-68
2022/07/19 00:22:12;;;;;;;6.43;5.50;;;;;;;25.29;37.86;97808.59;5071891;28;20206;-69
2022/07/19 00:24:37;;;;;;;4.00;3.50;;;;;;;25.30;38.08;97812.91;5064492;28;20597;-69
2022/07/19 00:27:03;;;;;;;4.50;3.20;;;;;;;25.27;37.44;97808.84;5071391;28;20248;-68
2022/07/19 00:29:28;;;;;;;9.07;4.27;;;;;;;25.13;38.07;97805.59;5070775;28;20262;-68
2022/07/19 00:31:54;;;;;;;5.40;2.80;;;;;;;25.04;37.79;97814.19;5071259;28;20673;-70
2022/07/19 00:34:19;;;;;;;4.43;3.33;;;;;;;24.94;38.40;97815.59;5070706;28;20250;-68
2022/07/19 00:36:44;;;;;;;7.20;5.20;;;;;;;24.85;38.07;97806.22;5071074;28;20661;-68
2022/07/19 00:39:10;;;;;;;6.23;3.67;;;;;;;24.77;37.93;97803.88;5072083;28;20174;-69
2022/07/19 00:41:42;;;;;;;6.17;4.60;;;;;;;24.73;37.63;97805.38;5083234;28;20188;-69
2022/07/19 00:44:09;;;;;;;8.97;6.00;;;;;;;24.82;38.18;97810.19;5060445;28;20179;-69
2022/07/19 00:46:34;;;;;;;9.77;8.33;;;;;;;24.89;38.38;97812.78;5070610;28;20474;-68
2022/07/19 00:49:00;;;;;;;3.93;3.43;;;;;;;24.87;38.23;97814.84;5063674;28;20425;-68
2022/07/19 00:51:25;;;;;;;5.10;3.63;;;;;;;24.83;38.43;97813.66;5070815;28;20190;-68
2022/07/19 00:53:51;;;;;;;4.70;3.20;;;;;;;24.86;38.24;97818.59;5060449;28;20520;-69
2022/07/19 00:56:17;;;;;;;8.37;3.77;;;;;;;24.74;38.50;97813.22;5070759;28;20285;-69
2022/07/19 00:58:43;;;;;;;9.70;3.40;;;;;;;24.75;38.62;97814.00;5052869;28;20183;-69
2022/07/19 01:01:09;;;;;;;3.33;3.00;;;;;;;24.67;38.48;97809.75;5078774;28;20645;-69
2022/07/19 01:03:39;;;;;;;12.97;3.53;;;;;;;24.57;38.30;97821.06;5067694;28;20194;-69
2022/07/19 01:06:06;;;;;;;5.97;3.73;;;;;;;24.51;38.74;97821.94;5070501;28;20474;-70
2022/07/19 01:08:31;;;;;;;4.63;3.97;;;;;;;24.50;38.62;97818.47;5070448;28;20874;-69
2022/07/19 01:10:57;;;;;;;3.70;3.33;;;;;;;24.48;38.67;97825.91;5074362;28;20404;-70
2022/07/19 01:13:23;;;;;;;5.10;4.47;;;;;;;24.48;38.87;97811.69;5075035;28;20248;-69
2022/07/19 01:15:48;;;;;;;5.47;3.40;;;;;;;24.48;38.69;97814.38;5070197;28;20249;-71
2022/07/19 01:18:14;;;;;;;6.87;3.90;;;;;;;24.35;38.89;97815.38;5070742;28;20590;-69
2022/07/19 01:20:39;;;;;;;5.20;4.20;;;;;;;24.31;39.30;97817.69;5073201;28;20753;-70
2022/07/19 01:23:05;;;;;;;3.33;3.03;;;;;;;24.23;39.11;97815.31;5065118;28;20218;-71
2022/07/19 01:25:32;;;;;;;11.23;3.47;;;;;;;24.27;39.26;97818.34;5068136;28;20179;-69
2022/07/19 01:27:58;;;;;;;4.00;3.60;;;;;;;24.30;39.18;97815.22;5068664;28;20265;-70
2022/07/19 01:30:25;;;;;;;10.20;3.57;;;;;;;24.30;39.35;97818.75;5070770;28;20414;-70
2022/07/19 01:32:51;;;;;;;8.80;4.10;;;;;;;24.33;38.98;97810.22;5065850;28;20214;-69
2022/07/19 01:35:18;;;;;;;4.63;3.20;;;;;;;24.36;39.24;97815.13;5069014;28;20503;-69
2022/07/19 01:37:44;;;;;;;9.13;3.80;;;;;;;24.42;39.54;97815.28;5073712;28;20800;-69
2022/07/19 01:40:12;;;;;;;5.80;3.63;;;;;;;24.39;39.49;97813.84;5070369;28;20508;-71
2022/07/19 01:42:38;;;;;;;4.50;3.60;;;;;;;24.36;39.45;97815.13;5076862;28;20212;-69
2022/07/19 01:45:05;;;;;;;5.97;3.93;;;;;;;24.30;39.92;97807.19;5067491;28;20421;-69
2022/07/19 01:47:30;;;;;;;5.90;3.50;;;;;;;24.13;40.03;97810.47;5063244;28;20424;-70
2022/07/19 01:49:56;;;;;;;6.33;3.60;;;;;;;24.02;40.23;97809.41;5070362;28;20472;-69
2022/07/19 01:52:21;;;;;;;4.30;3.20;;;;;;;24.07;40.19;97806.84;5070172;28;20281;-69
2022/07/19 01:54:47;;;;;;;4.20;3.80;;;;;;;24.03;40.41;97811.03;5065851;28;20202;-72
2022/07/19 01:57:12;;;;;;;6.50;3.93;;;;;;;24.02;40.55;97814.75;5069059;28;20217;-69
2022/07/19 01:59:38;;;;;;;8.93;3.60;;;;;;;23.96;40.42;97799.56;5069451;28;20271;-69
2022/07/19 02:02:04;;;;;;;7.53;3.50;;;;;;;23.89;41.09;97814.88;5071718;28;20236;-73
2022/07/19 02:04:30;;;;;;;7.10;3.63;;;;;;;23.80;40.69;97802.84;5070182;28;20478;-69
2022/07/19 02:06:56;;;;;;;9.00;3.40;;;;;;;23.78;41.18;97795.84;5070053;28;20935;-71
2022/07/19 02:09:21;;;;;;;4.80;3.70;;;;;;;23.83;41.12;97797.03;5069722;28;20210;-69
2022/07/19 02:11:46;;;;;;;5.23;3.50;;;;;;;23.80;40.87;97797.50;5072372;28;20597;-69
2022/07/19 02:14:12;;;;;;;4.03;3.63;;;;;;;23.74;41.02;97791.97;5064215;28;20286;-70
2022/07/19 02:16:38;;;;;;;5.23;3.60;;;;;;;23.73;41.30;97789.53;5075485;28;20187;-69
2022/07/19 02:19:04;;;;;;;5.97;3.37;;;;;;;23.64;41.57;97794.38;5069940;28;20182;-68
2022/07/19 02:21:30;;;;;;;5.60;4.10;;;;;;;23.55;41.79;97799.19;5065202;28;20269;-69
2022/07/19 02:23:56;;;;;;;4.10;3.57;;;;;;;23.51;42.02;97791.81;5063038;28;21168;-68
2022/07/19 02:26:21;;;;;;;10.07;3.90;;;;;;;23.51;42.14;97797.19;5071930;28;20180;-69
2022/07/19 02:28:47;;;;;;;10.60;4.03;;;;;;;23.51;41.95;97797.19;5076251;28;20171;-69
2022/07/19 02:31:12;;;;;;;6.03;3.93;;;;;;;23.43;41.76;97796.44;5073380;28;20269;-68
2022/07/19 02:33:38;;;;;;;4.83;4.13;;;;;;;23.45;42.05;97788.19;5073441;28;20214;-69
2022/07/19 02:36:03;;;;;;;9.90;3.70;;;;;;;23.45;41.95;97794.34;5073247;28;20719;-69
2022/07/19 02:38:30;;;;;;;5.27;4.00;;;;;;;23.47;41.80;97778.88;5073702;28;20543;-68
2022/07/19 02:40:55;;;;;;;5.00;3.50;;;;;;;23.44;41.88;97790.03;5073415;28;20204;-69
2022/07/19 02:43:21;;;;;;;7.93;3.80;;;;;;;23.49;41.93;97783.19;5072960;28;20527;-68
2022/07/19 02:45:46;;;;;;;7.03;3.87;;;;;;;23.46;42.14;97785.28;5073519;28;20178;-69
2022/07/19 02:48:12;;;;;;;5.40;3.60;;;;;;;23.46;42.18;97785.28;5071972;28;20186;-70
2022/07/19 02:50:37;;;;;;;7.53;4.10;;;;;;;23.41;42.29;97786.97;5073528;28;20175;-69
2022/07/19 02:53:03;;;;;;;9.27;3.97;;;;;;;23.34;42.45;97784.38;5065336;28;20209;-69
2022/07/19 02:55:28;;;;;;;4.77;3.70;;;;;;;23.31;42.41;97785.63;5073161;28;20259;-69
2022/07/19 02:57:54;;;;;;;12.30;3.93;;;;;;;23.23;42.27;97785.94;5073166;28;20565;-69
2022/07/19 03:00:20;;;;;;;5.30;3.63;;;;;;;23.25;42.25;97788.38;5071970;28;20193;-69
2022/07/19 03:02:45;;;;;;;6.00;3.80;;;;;;;23.19;42.30;97783.88;5067959;28;20205;-69
2022/07/19 03:05:11;;;;;;;5.70;3.30;;;;;;;23.15;42.26;97783.50;5072865;28;20642;-69
2022/07/19 03:07:36;;;;;;;4.17;3.50;;;;;;;23.14;42.02;97782.69;5073365;28;20178;-69
2022/07/19 03:10:02;;;;;;;5.17;3.63;;;;;;;23.13;42.08;97770.34;5076314;28;20183;-69
2022/07/19 03:12:28;;;;;;;4.00;3.30;;;;;;;22.92;42.04;97773.44;5075073;28;20285;-69
2022/07/19 03:14:54;;;;;;;4.93;3.77;;;;;;;23.00;42.33;97770.47;5069686;28;20544;-69
2022/07/19 03:17:19;;;;;;;8.33;3.63;;;;;;;23.02;41.79;97779.09;5072588;28;20185;-68
2022/07/19 03:19:46;;;;;;;4.43;3.50;;;;;;;23.09;42.02;97773.69;5076207;28;20240;-69
2022/07/19 03:22:12;;;;;;;9.00;3.60;;;;;;;23.06;42.39;97780.28;5072663;28;20733;-69
2022/07/19 03:24:37;;;;;;;4.13;3.07;;;;;;;23.10;42.33;97772.66;5054459;28;20427;-69
2022/07/19 03:27:03;;;;;;;10.37;3.70;;;;;;;23.03;42.22;97772.72;5054392;28;20425;-70
2022/07/19 03:29:28;;;;;;;6.90;3.47;;;;;;;22.96;42.38;97772.75;5037512;28;20726;-69
2022/07/19 03:31:54;;;;;;;6.70;3.47;;;;;;;22.98;42.62;97775.22;5067531;28;20629;-69
2022/07/19 03:34:19;;;;;;;5.20;3.70;;;;;;;22.99;42.23;97771.50;5061443;28;20244;-69
2022/07/19 03:36:45;;;;;;;5.07;4.10;;;;;;;23.04;42.14;97766.34;5071693;28;20179;-69
2022/07/19 03:39:10;;;;;;;6.37;3.80;;;;;;;23.07;42.19;97773.88;5070733;28;20205;-69
2022/07/19 03:41:36;;;;;;;5.93;3.93;;;;;;;23.04;42.28;97773.50;5065677;28;20733;-69
2022/07/19 03:44:01;;;;;;;5.63;3.77;;;;;;;23.07;42.38;97776.56;5060606;28;20223;-72
2022/07/19 03:46:28;;;;;;;3.63;3.33;;;;;;;23.04;42.26;97777.03;5063104;28;20177;-68
2022/07/19 03:48:55;;;;;;;4.83;3.53;;;;;;;23.05;42.10;97776.00;5066267;28;20577;-69
2022/07/19 03:51:21;;;;;;;6.53;3.60;;;;;;;23.05;42.11;97778.66;5071318;28;20436;-69
2022/07/19 03:53:47;;;;;;;4.13;3.40;;;;;;;23.10;41.98;97778.00;5071744;28;20441;-69
2022/07/19 03:56:13;;;;;;;3.60;3.30;;;;;;;23.07;41.89;97781.91;5071272;28;20452;-69
2022/07/19 03:58:38;;;;;;;4.20;3.80;;;;;;;23.03;42.09;97780.72;5070122;28;20693;-69
2022/07/19 04:01:04;;;;;;;6.10;3.80;;;;;;;23.02;42.45;97782.56;5073261;28;20497;-72
2022/07/19 04:03:30;;;;;;;5.20;3.27;;;;;;;22.96;42.21;97780.78;5066683;28;20198;-69
2022/07/19 04:05:55;;;;;;;5.67;3.57;;;;;;;22.95;42.46;97778.31;5071338;28;20710;-68
2022/07/19 04:08:21;;;;;;;5.30;3.30;;;;;;;22.84;42.43;97786.00;5069810;28;20235;-69
2022/07/19 04:10:46;;;;;;;4.60;3.77;;;;;;;22.80;42.69;97784.81;5072794;28;20691;-68
2022/07/19 04:13:12;;;;;;;6.03;3.40;;;;;;;22.76;42.36;97785.44;5075479;28;20214;-69
2022/07/19 04:15:37;;;;;;;3.83;3.43;;;;;;;22.77;42.74;97790.59;5070967;28;20764;-70
2022/07/19 04:18:02;;;;;;;4.73;3.30;;;;;;;22.76;42.37;97788.13;5074038;28;20213;-70
2022/07/19 04:20:28;;;;;;;7.30;5.20;;;;;;;22.84;42.44;97795.88;5070983;28;20181;-69
2022/07/19 04:22:53;;;;;;;8.30;4.43;;;;;;;22.80;42.50;97792.84;5069073;28;20263;-70
2022/07/19 04:25:19;;;;;;;7.10;3.43;;;;;;;22.82;42.38;97785.41;5070694;28;20252;-70
2022/07/19 04:27:44;;;;;;;11.17;4.33;;;;;;;22.82;43.30;97792.59;5070036;28;20550;-69
2022/07/19 04:30:10;;;;;;;8.30;4.17;;;;;;;22.80;43.25;97792.00;5070849;28;20193;-70
2022/07/19 04:32:36;;;;;;;13.80;4.00;;;;;;;22.80;43.50;97792.84;5070781;28;20236;-70
2022/07/19 04:35:02;;;;;;;9.57;3.70;;;;;;;22.81;43.93;97797.13;5070063;28;20669;-70
2022/07/19 04:37:27;;;;;;;17.63;4.40;;;;;;;22.81;43.96;97796.31;5070013;28;20182;-70
2022/07/19 04:39:53;;;;;;;14.40;4.60;;;;;;;22.80;44.09;97802.69;5071166;28;20963;-70
2022/07/19 04:42:18;;;;;;;9.90;4.67;;;;;;;22.82;44.31;97800.63;5070834;28;20194;-70
2022/07/19 04:44:44;;;;;;;15.40;4.97;;;;;;;22.84;44.52;97803.91;5066139;28;20199;-70
2022/07/19 04:47:09;;;;;;;9.63;4.27;;;;;;;22.84;44.11;97799.38;5066472;28;20232;-70
2022/07/19 04:49:35;;;;;;;13.33;4.17;;;;;;;22.86;44.07;97791.16;5073974;28;20213;-70
2022/07/19 04:52:01;;;;;;;9.20;4.20;;;;;;;22.83;44.14;97791.56;5067790;28;20290;-71
2022/07/19 04:54:26;;;;;;;6.80;3.80;;;;;;;22.84;44.66;97791.34;5073485;28;20448;-70
2022/07/19 04:56:51;;;;;;;9.73;4.00;;;;;;;22.89;44.19;97787.22;5068471;28;20661;-71
2022/07/19 04:59:17;;;;;;;7.33;4.20;;;;;;;22.94;43.67;97798.03;5072391;28;20178;-70
2022/07/19 05:01:42;;;;;;;7.30;4.13;;;;;;;22.98;44.35;97791.25;5073759;28;20233;-70
2022/07/19 05:04:08;;;;;;;9.50;4.60;;;;;;;22.98;44.56;97786.72;5069397;28;20183;-71
2022/07/19 05:06:33;;;;;;;7.87;4.73;;;;;;;23.01;44.91;97788.16;5070125;28;20182;-71
2022/07/19 05:08:59;;;;;;;14.67;4.40;;;;;;;23.07;45.13;97789.94;5076004;28;20211;-70
2022/07/19 05:11:24;;;;;;;9.23;4.23;;;;;;;23.17;44.93;97789.44;5074430;28;20784;-69
2022/07/19 05:13:50;;;;;;;6.30;3.97;;;;;;;23.25;44.69;97791.03;5066723;28;20205;-68
2022/07/19 05:16:15;;;;;;;5.63;4.00;;;;;;;23.32;44.36;97797.13;5066841;28;20217;-69
2022/07/19 05:18:41;;;;;;;9.87;3.77;;;;;;;23.36;44.20;97790.31;5071284;28;20177;-70
2022/07/19 05:21:06;;;;;;;8.40;3.97;;;;;;;23.46;44.18;97782.59;5071194;28;20441;-69
2022/07/19 05:23:31;;;;;;;10.10;4.57;;;;;;;23.55;44.51;97782.31;5072480;28;20201;-69
2022/07/19 05:25:57;;;;;;;7.60;4.23;;;;;;;23.62;44.64;97777.72;5070460;28;20175;-68
2022/07/19 05:28:23;;;;;;;7.23;3.70;;;;;;;23.73;44.45;97782.31;5074670;28;20201;-68
2022/07/19 05:30:48;;;;;;;7.60;4.03;;;;;;;23.82;44.24;97782.84;5065623;28;20175;-69
2022/07/19 05:33:16;;;;;;;7.43;3.93;;;;;;;23.92;43.90;97783.13;5068523;28;20225;-70
2022/07/19 05:35:41;;;;;;;8.60;4.17;;;;;;;23.99;44.29;97788.44;5074132;28;20619;-71
2022/07/19 05:38:07;;;;;;;6.53;4.30;;;;;;;24.05;44.11;97787.53;5060937;28;20458;-68
2022/07/19 05:40:32;;;;;;;10.97;4.03;;;;;;;24.18;44.14;97783.06;5077660;28;20203;-68
2022/07/19 05:42:58;;;;;;;9.13;4.00;;;;;;;24.22;44.00;97781.53;5060586;28;20190;-68
2022/07/19 05:45:23;;;;;;;5.30;3.80;;;;;;;24.32;43.83;97786.38;5077510;28;20189;-68
2022/07/19 05:47:49;;;;;;;10.03;3.90;;;;;;;24.42;43.67;97791.97;5069342;28;20585;-69
2022/07/19 05:50:14;;;;;;;10.27;4.50;;;;;;;24.54;43.57;97787.47;5078665;28;20174;-68
2022/07/19 05:52:39;;;;;;;11.40;3.90;;;;;;;24.73;43.29;97794.66;5069466;28;20197;-68
2022/07/19 05:55:06;;;;;;;12.93;4.03;;;;;;;24.88;42.86;97789.69;5065500;28;20213;-71
2022/07/19 05:57:31;;;;;;;10.30;4.43;;;;;;;25.05;42.11;97791.69;5077192;28;20184;-70
2022/07/19 05:59:57;;;;;;;10.00;3.90;;;;;;;25.21;41.64;97791.00;5066681;28;20425;-69
2022/07/19 06:02:22;;;;;;;16.07;4.27;;;;;;;25.39;41.02;97790.06;5075011;28;20203;-69
2022/07/19 06:04:48;;;;;;;4.80;3.50;;;;;;;25.58;41.10;97788.09;5073633;28;20181;-68
2022/07/19 06:07:13;;;;;;;9.23;3.80;;;;;;;25.77;40.55;97782.56;5079048;28;20182;-68
2022/07/19 06:09:39;;;;;;;4.90;3.70;;;;;;;25.95;40.23;97783.47;5080123;28;20174;-68
2022/07/19 06:12:04;;;;;;;9.40;3.80;;;;;;;26.12;39.97;97786.25;5073219;28;20208;-70
2022/07/19 06:14:30;;;;;;;12.47;4.30;;;;;;;26.30;39.07;97790.63;5081732;28;20553;-68
2022/07/19 06:16:55;;;;;;;10.93;4.57;;;;;;;26.42;38.44;97788.69;5073016;28;20200;-69
2022/07/19 06:19:21;;;;;;;5.53;3.60;;;;;;;26.59;38.33;97787.91;5076390;28;20269;-68
2022/07/19 06:21:46;;;;;;;4.60;3.40;;;;;;;26.69;37.11;97790.78;5075220;28;20214;-68
2022/07/19 06:24:12;;;;;;;11.67;3.93;;;;;;;26.81;36.33;97782.66;5080866;28;20221;-69
2022/07/19 06:26:37;;;;;;;5.07;3.07;;;;;;;26.92;35.38;97789.03;5071928;28;20179;-69
2022/07/19 06:29:03;;;;;;;15.70;3.37;;;;;;;27.06;35.51;97784.94;5077025;28;20647;-68
2022/07/19 06:31:28;;;;;;;11.23;3.10;;;;;;;27.21;35.33;97788.94;5073119;28;20539;-69
2022/07/19 06:33:54;;;;;;;5.60;3.30;;;;;;;27.37;34.65;97779.22;5073147;28;20258;-70
2022/07/19 06:36:19;;;;;;;5.20;3.23;;;;;;;27.52;34.78;97786.69;5058061;28;20213;-69
2022/07/19 06:38:46;;;;;;;9.10;2.97;;;;;;;27.64;34.09;97783.91;5073926;28;20186;-69
2022/07/19 06:41:12;;;;;;;10.43;3.10;;;;;;;27.71;33.30;97785.34;5073191;28;20544;-69
2022/07/19 06:43:38;;;;;;;5.70;2.83;;;;;;;27.84;33.32;97778.78;5079724;28;20806;-70
2022/07/19 06:46:04;;;;;;;2.73;2.53;;;;;;;27.99;33.03;97783.53;5072132;28;20417;-73
2022/07/19 06:48:29;;;;;;;11.90;2.90;;;;;;;27.99;32.29;97775.44;5064644;28;20490;-70
2022/07/19 06:50:55;;;;;;;6.50;2.40;;;;;;;28.12;31.83;97776.97;5073583;28;20189;-69
2022/07/19 06:53:20;;;;;;;6.30;2.70;;;;;;;28.31;31.96;97779.31;5065124;28;20235;-72
2022/07/19 06:55:46;;;;;;;5.00;2.10;;;;;;;28.39;31.08;97786.97;5083244;28;20224;-69
2022/07/19 06:58:12;;;;;;;2.70;2.50;;;;;;;28.46;30.70;97779.47;5076720;28;20676;-68
2022/07/19 07:00:37;;;;;;;4.97;2.23;;;;;;;28.62;30.60;97776.91;5074791;28;20170;-68
2022/07/19 07:03:03;;;;;;;3.73;2.70;;;;;;;28.68;30.18;97775.88;5073896;28;20220;-71
2022/07/19 07:05:28;;;;;;;6.87;2.27;;;;;;;28.84;29.80;97770.66;5071668;28;20174;-69
2022/07/19 07:07:54;;;;;;;3.20;2.43;;;;;;;28.78;29.67;97775.19;5072744;28;20190;-70
2022/07/19 07:10:20;;;;;;;4.30;2.20;;;;;;;28.93;29.43;97778.03;5076051;28;20705;-70
2022/07/19 07:12:45;;;;;;;4.80;2.47;;;;;;;29.04;29.41;97772.69;5072027;28;20695;-69
2022/07/19 07:15:11;;;;;;;4.90;2.50;;;;;;;29.19;29.55;97767.41;5072261;28;20267;-70
2022/07/19 07:17:37;;;;;;;5.13;2.40;;;;;;;29.15;28.86;97768.19;5072943;28;20213;-71
2022/07/19 07:20:06;;;;;;;3.07;1.87;;;;;;;29.38;28.79;97769.69;5068907;28;20662;-71
2022/07/19 07:22:33;;;;;;;4.57;2.60;;;;;;;29.47;28.43;97767.31;5066311;28;20455;-69
2022/07/19 07:24:58;;;;;;;2.87;2.00;;;;;;;29.66;28.77;97759.59;5061597;28;20439;-71
2022/07/19 07:27:23;;;;;;;5.67;2.23;;;;;;;29.85;28.22;97766.16;5065210;28;20456;-68
2022/07/19 07:29:49;;;;;;;3.50;2.27;;;;;;;30.00;28.25;97756.50;5072307;28;20178;-70
2022/07/19 07:32:14;;;;;;;5.53;2.30;;;;;;;30.14;26.91;97757.63;5061382;28;20210;-70
2022/07/19 07:34:40;;;;;;;4.07;2.40;;;;;;;30.32;27.57;97758.19;5067975;28;20210;-70
2022/07/19 07:37:05;;;;;;;8.93;2.30;;;;;;;30.57;28.04;97756.63;5063346;28;20178;-72
2022/07/19 07:39:31;;;;;;;4.50;2.50;;;;;;;30.82;28.29;97755.00;5060703;28;20179;-70
2022/07/19 07:41:56;;;;;;;2.80;2.03;;;;;;;31.02;27.19;97757.69;5066007;28;20691;-69
2022/07/19 07:44:22;;;;;;;4.77;2.30;;;;;;;31.22;26.68;97758.78;5062388;28;20174;-70
2022/07/19 07:46:47;;;;;;;4.10;2.07;;;;;;;31.35;25.91;97750.09;5066791;28;20174;-70
2022/07/19 07:49:13;;;;;;;15.03;2.40;;;;;;;31.49;25.26;97757.66;5062076;28;20187;-70
2022/07/19 07:51:38;;;;;;;3.43;2.10;;;;;;;31.61;24.84;97755.44;5063947;28;20195;-70
2022/07/19 07:54:03;;;;;;;1.87;1.77;;;;;;;31.75;24.83;97746.75;5068693;28;20190;-69
2022/07/19 07:56:29;;;;;;;6.80;2.30;;;;;;;31.90;24.71;97756.69;5075653;28;20228;-69
2022/07/19 07:58:54;;;;;;;7.10;1.90;;;;;;;32.05;24.47;97755.78;5068250;28;20677;-69
2022/07/19 08:01:20;;;;;;;2.20;2.00;;;;;;;32.17;23.76;97754.38;5071957;28;20201;-70
2022/07/19 08:03:45;;;;;;;4.03;2.43;;;;;;;32.30;23.39;97747.53;5071454;28;20732;-69
2022/07/19 08:06:11;;;;;;;5.63;1.93;;;;;;;32.43;23.68;97753.41;5071246;28;20533;-70
2022/07/19 08:08:37;;;;;;;2.20;1.73;;;;;;;32.57;23.67;97746.25;5071279;28;20545;-69
2022/07/19 08:11:03;;;;;;;3.93;1.53;;;;;;;32.72;23.93;97747.22;5075016;28;20182;-70
2022/07/19 08:13:29;;;;;;;3.37;1.90;;;;;;;32.84;23.29;97742.28;5073090;28;20428;-68
2022/07/19 08:15:54;;;;;;;4.70;1.70;;;;;;;32.98;22.88;97744.31;5071283;28;20445;-70
2022/07/19 08:18:20;;;;;;;4.90;2.10;;;;;;;33.08;22.48;97741.50;5074622;28;20204;-70
2022/07/19 08:20:45;;;;;;;2.60;1.80;;;;;;;33.17;21.73;97737.06;5071149;28;20174;-69
2022/07/19 08:23:11;;;;;;;3.97;1.80;;;;;;;33.33;22.46;97736.91;5069626;28;20202;-67
2022/07/19 08:25:36;;;;;;;4.40;2.53;;;;;;;33.49;22.44;97740.28;5071452;28;20274;-67
2022/07/19 08:28:02;;;;;;;5.03;1.80;;;;;;;33.47;22.38;97731.59;5073679;28;20276;-69
2022/07/19 08:30:27;;;;;;;7.87;2.20;;;;;;;33.63;22.24;97732.25;5072147;28;20224;-69
2022/07/19 08:32:53;;;;;;;10.27;2.20;;;;;;;33.76;21.66;97728.81;5070702;28;20236;-68
2022/07/19 08:35:19;;;;;;;5.90;2.10;;;;;;;33.94;21.69;97735.41;5070573;28;20210;-68
2022/07/19 08:37:44;;;;;;;5.80;1.80;;;;;;;34.07;22.01;97728.41;5070693;28;20185;-68
2022/07/19 08:40:10;;;;;;;10.63;2.07;;;;;;;34.20;21.54;97724.16;5066087;28;20191;-68
2022/07/19 08:42:36;;;;;;;2.47;1.93;;;;;;;34.36;20.57;97723.91;5058034;28;20211;-67
2022/07/19 08:45:04;;;;;;;3.23;2.00;;;;;;;34.52;21.36;97725.31;5061747;28;20186;-69
2022/07/19 08:47:31;;;;;;;7.70;1.90;;;;;;;34.58;20.72;97726.03;5058451;28;20236;-68
2022/07/19 08:49:58;;;;;;;3.67;1.80;;;;;;;34.70;20.83;97729.09;5060843;28;20416;-67
2022/07/19 08:52:24;;;;;;;3.57;1.83;;;;;;;34.80;20.92;97721.84;5056577;28;20556;-68
2022/07/19 08:54:50;;;;;;;5.27;1.90;;;;;;;34.93;20.82;97731.22;5070718;28;20502;-68
2022/07/19 08:59:59;;;;;;;5.07;1.90;;;;;;;35.01;20.77;97734.03;5068390;28;21008;-68
2022/07/19 09:02:25;;;;;;;10.00;3.70;;;;;;;35.00;20.35;97731.59;5065156;28;20451;-68
2022/07/19 09:05:07;;;;;;;6.47;2.07;;;;;;;35.08;20.15;97733.66;5056767;28;20253;-69
2022/07/19 09:07:35;;;;;;;12.10;3.30;;;;;;;35.20;20.36;97731.25;5055367;28;20186;-69
2022/07/19 09:10:20;;;;;;;8.77;2.50;;;;;;;34.84;20.40;97742.75;5064650;28;20428;-70
2022/07/19 09:13:13;;;;;;;7.03;2.43;;;;;;;35.12;20.34;97733.84;5058250;28;20490;-70
2022/07/19 09:15:40;;;;;;;4.80;3.77;;;;;;;35.23;20.10;97740.72;5053468;28;20534;-70
2022/07/19 09:18:14;;;;;;;5.60;3.10;;;;;;;35.36;20.13;97745.38;5058737;28;20502;-69
2022/07/19 09:20:40;;;;;;;3.13;2.10;;;;;;;35.49;19.72;97734.81;5053002;28;20432;-70
2022/07/19 09:23:06;;;;;;;5.73;2.00;;;;;;;35.55;20.06;97741.75;5052700;28;20460;-70
2022/07/19 09:25:40;;;;;;;9.53;2.60;;;;;;;35.67;20.02;97733.88;5062736;28;20797;-69
2022/07/19 09:28:06;;;;;;;4.67;2.70;;;;;;;35.82;20.03;97737.38;5064496;28;20572;-70
2022/07/19 09:30:37;;;;;;;3.37;1.73;;;;;;;35.90;19.52;97733.94;5061842;28;20533;-70
2022/07/19 09:33:22;;;;;;;11.20;3.90;;;;;;;36.01;20.31;97736.47;5068240;28;20247;-68
2022/07/19 09:35:53;;;;;;;2.70;2.37;;;;;;;36.06;19.50;97733.63;5062274;28;20448;-70
2022/07/19 09:38:27;;;;;;;9.60;1.83;;;;;;;36.15;19.62;97731.78;5056086;28;20548;-70
2022/07/19 09:41:10;;;;;;;5.37;2.17;;;;;;;36.13;19.46;97723.91;5057442;28;20776;-70
2022/07/19 09:43:55;;;;;;;3.70;1.90;;;;;;;36.20;19.37;97723.47;5052664;28;20440;-69
2022/07/19 09:46:33;;;;;;;4.13;2.40;;;;;;;36.27;19.10;97726.59;5049272;28;20452;-71
2022/07/19 09:49:05;;;;;;;3.50;1.90;;;;;;;36.36;19.46;97726.63;5054357;28;20946;-69
2022/07/19 09:51:32;;;;;;;4.00;1.90;;;;;;;36.57;19.42;97712.53;5055051;28;20802;-70
2022/07/19 09:53:58;;;;;;;2.10;2.00;;;;;;;36.71;19.66;97707.81;5050223;28;20449;-69
2022/07/19 09:56:24;;;;;;;3.30;2.30;;;;;;;36.89;18.78;97708.72;5048914;28;20562;-72
2022/07/19 09:58:50;;;;;;;4.13;3.10;;;;;;;37.04;17.90;97704.00;5051318;28;20184;-72
2022/07/19 10:01:16;;;;;;;3.77;2.30;;;;;;;37.10;17.09;97705.47;5057096;28;20425;-70
2022/07/19 10:03:42;;;;;;;2.97;2.33;;;;;;;37.19;17.20;97706.28;5052004;28;20983;-70
2022/07/19 10:06:07;;;;;;;3.93;2.20;;;;;;;37.28;17.16;97700.06;5052376;28;20183;-69
2022/07/19 10:08:33;;;;;;;4.83;2.20;;;;;;;37.32;16.70;97706.50;5054451;28;20190;-69
2022/07/19 10:10:58;;;;;;;2.60;2.20;;;;;;;37.40;16.86;97696.72;5054515;28;20175;-70
2022/07/19 10:13:25;;;;;;;3.93;2.50;;;;;;;37.49;16.90;97706.59;5055980;28;20242;-68
2022/07/19 10:15:52;;;;;;;2.90;2.27;;;;;;;37.56;16.08;97708.03;5053394;28;20237;-69
2022/07/19 10:18:24;;;;;;;4.70;2.23;;;;;;;37.52;16.24;97707.88;5058490;28;20425;-68
2022/07/19 10:20:49;;;;;;;2.70;2.20;;;;;;;37.63;16.25;97705.66;5053006;28;20952;-69
2022/07/19 10:23:15;;;;;;;4.03;2.20;;;;;;;37.69;16.56;97698.88;5064732;28;20475;-69
2022/07/19 10:25:46;;;;;;;4.90;2.20;;;;;;;37.61;16.26;97697.78;5063458;28;20248;-69
2022/07/19 10:28:36;;;;;;;4.10;2.20;;;;;;;37.56;16.05;97691.63;5064447;28;20267;-68
2022/07/19 10:31:01;;;;;;;6.30;2.10;;;;;;;37.75;16.20;97685.88;5058008;28;20531;-69
2022/07/19 10:33:36;;;;;;;3.50;1.80;;;;;;;37.77;16.00;97692.66;5058355;28;20451;-70
2022/07/19 10:36:33;;;;;;;2.10;1.90;;;;;;;37.97;16.37;97682.22;5054802;28;20263;-70
2022/07/19 10:39:17;;;;;;;4.20;2.20;;;;;;;38.09;16.14;97679.66;5053917;28;20412;-68
2022/07/19 10:42:20;;;;;;;1.90;1.80;;;;;;;38.28;16.41;97678.50;5058719;28;20419;-69
2022/07/19 10:44:55;;;;;;;6.37;2.23;;;;;;;38.44;15.79;97667.88;5057344;28;20412;-69
2022/07/19 10:47:39;;;;;;;7.00;2.40;;;;;;;38.50;15.85;97676.72;5062822;28;20444;-69
2022/07/19 10:50:17;;;;;;;2.37;1.80;;;;;;;38.56;15.64;97675.44;5073080;28;20423;-69
2022/07/19 10:52:43;;;;;;;6.03;2.20;;;;;;;38.51;15.15;97672.88;5061224;28;20435;-69
2022/07/19 10:57:45;;;;;;;8.60;2.17;;;;;;;38.62;15.76;97670.59;5070728;28;20435;-70
2022/07/19 11:00:22;;;;;;;5.23;2.27;;;;;;;38.69;16.12;97668.94;5045287;28;20425;-70
2022/07/19 11:02:48;;;;;;;2.40;2.00;;;;;;;38.77;15.43;97659.09;5073219;28;20444;-71
2022/07/19 11:05:25;;;;;;;11.67;2.33;;;;;;;38.56;15.13;97653.53;5069543;28;20412;-68
2022/07/19 11:07:52;;;;;;;4.37;2.23;;;;;;;38.57;15.65;97649.66;5078970;28;21136;-69
2022/07/19 11:10:25;;;;;;;6.20;2.40;;;;;;;38.60;15.23;97661.91;5077519;28;20801;-70
2022/07/19 11:12:50;;;;;;;2.70;2.20;;;;;;;38.62;15.36;97640.47;5075183;28;20976;-69
2022/07/19 11:15:16;;;;;;;2.30;2.00;;;;;;;38.73;15.18;97641.72;5069062;28;20459;-71
2022/07/19 11:18:07;;;;;;;2.40;2.10;;;;;;;38.67;15.38;97635.63;5074491;28;20189;-70
2022/07/19 11:20:35;;;;;;;2.57;2.20;;;;;;;38.79;15.67;97634.13;5075995;28;20186;-69
2022/07/19 11:23:03;;;;;;;2.90;2.30;;;;;;;38.82;15.51;97639.78;5072792;28;20451;-69
2022/07/19 11:25:29;;;;;;;10.17;2.37;;;;;;;38.79;15.38;97634.94;5068792;28;20965;-69
2022/07/19 11:27:55;;;;;;;9.20;2.40;;;;;;;38.90;15.48;97631.84;5064711;28;20428;-69
2022/07/19 11:30:22;;;;;;;2.43;1.90;;;;;;;38.96;15.50;97633.28;5062628;28;20860;-69
2022/07/19 11:32:58;;;;;;;4.80;2.50;;;;;;;39.08;15.00;97629.81;5062911;28;20463;-71
2022/07/19 11:35:24;;;;;;;6.07;2.20;;;;;;;39.20;14.93;97626.38;5064347;28;20453;-70